sensor_id;sensor_type;location;lat;lon;timestamp;P1;durP1;ratioP1;P2;durP2;ratioP2
3211;SDS011;1618;47.056;15.472;2023-08-24T00:00:37;16.07;;;15.27;;
3211;SDS011;1618;47.056;15.472;2023-08-24T00:06:08;15.90;;;15.20;;
3211;SDS011;1618;47.056;15.472;2023-08-24T00:08:36;15.93;;;15.23;;
3211;SDS011;1618;47.056;15.472;2023-08-24T00:11:06;15.90;;;15.20;;
3211;SDS011;1618;47.056;15.472;2023-08-24T00:13:34;15.70;;;15.00;;
3211;SDS011;1618;47.056;15.472;2023-08-24T00:16:06;16.63;;;15.83;;
3211;SDS011;1618;47.056;15.472;2023-08-24T00:18:36;16.50;;;15.70;;
3211;SDS011;1618;47.056;15.472;2023-08-24T00:21:09;16.80;;;16.00;;
3211;SDS011;1618;47.056;15.472;2023-08-24T00:23:42;15.70;;;15.00;;
3211;SDS011;1618;47.056;15.472;2023-08-24T00:26:12;15.67;;;14.97;;
3211;SDS011;1618;47.056;15.472;2023-08-24T00:28:43;15.97;;;15.27;;
3211;SDS011;1618;47.056;15.472;2023-08-24T00:31:19;15.00;;;14.30;;
3211;SDS011;1618;47.056;15.472;2023-08-24T00:33:51;16.57;;;15.77;;
3211;SDS011;1618;47.056;15.472;2023-08-24T00:36:19;15.10;;;14.40;;
3211;SDS011;1618;47.056;15.472;2023-08-24T00:38:49;15.00;;;14.30;;
3211;SDS011;1618;47.056;15.472;2023-08-24T00:41:20;15.07;;;14.37;;
3211;SDS011;1618;47.056;15.472;2023-08-24T00:43:51;15.67;;;14.97;;
3211;SDS011;1618;47.056;15.472;2023-08-24T00:46:20;15.73;;;15.03;;
3211;SDS011;1618;47.056;15.472;2023-08-24T00:48:53;15.60;;;14.90;;
3211;SDS011;1618;47.056;15.472;2023-08-24T00:51:22;15.27;;;14.57;;
3211;SDS011;1618;47.056;15.472;2023-08-24T00:53:49;15.87;;;15.17;;
3211;SDS011;1618;47.056;15.472;2023-08-24T00:56:17;16.20;;;15.40;;
3211;SDS011;1618;47.056;15.472;2023-08-24T00:58:48;15.30;;;14.60;;
3211;SDS011;1618;47.056;15.472;2023-08-24T01:01:17;16.00;;;15.30;;
3211;SDS011;1618;47.056;15.472;2023-08-24T01:03:45;16.93;;;16.13;;
3211;SDS011;1618;47.056;15.472;2023-08-24T01:06:12;16.43;;;15.63;;
3211;SDS011;1618;47.056;15.472;2023-08-24T01:08:40;15.60;;;14.90;;
3211;SDS011;1618;47.056;15.472;2023-08-24T01:11:09;15.43;;;14.73;;
3211;SDS011;1618;47.056;15.472;2023-08-24T01:13:45;15.67;;;14.97;;
3211;SDS011;1618;47.056;15.472;2023-08-24T01:16:16;16.53;;;15.73;;
3211;SDS011;1618;47.056;15.472;2023-08-24T01:18:45;15.83;;;15.13;;
3211;SDS011;1618;47.056;15.472;2023-08-24T01:21:17;16.60;;;15.80;;
3211;SDS011;1618;47.056;15.472;2023-08-24T01:23:48;16.97;;;16.17;;
3211;SDS011;1618;47.056;15.472;2023-08-24T01:26:20;17.10;;;16.30;;
3211;SDS011;1618;47.056;15.472;2023-08-24T01:28:49;16.70;;;15.90;;
3211;SDS011;1618;47.056;15.472;2023-08-24T01:31:22;16.07;;;15.37;;
3211;SDS011;1618;47.056;15.472;2023-08-24T01:33:49;16.17;;;15.47;;
3211;SDS011;1618;47.056;15.472;2023-08-24T01:36:18;16.10;;;15.40;;
3211;SDS011;1618;47.056;15.472;2023-08-24T01:38:46;16.20;;;15.50;;
3211;SDS011;1618;47.056;15.472;2023-08-24T01:41:15;16.97;;;16.17;;
3211;SDS011;1618;47.056;15.472;2023-08-24T01:43:49;16.53;;;15.73;;
3211;SDS011;1618;47.056;15.472;2023-08-24T01:46:21;15.50;;;14.70;;
3211;SDS011;1618;47.056;15.472;2023-08-24T01:48:49;15.70;;;14.90;;
3211;SDS011;1618;47.056;15.472;2023-08-24T01:51:20;15.50;;;14.70;;
3211;SDS011;1618;47.056;15.472;2023-08-24T01:53:48;15.90;;;15.10;;
3211;SDS011;1618;47.056;15.472;2023-08-24T01:56:19;16.17;;;15.37;;
3211;SDS011;1618;47.056;15.472;2023-08-24T01:58:49;15.40;;;14.60;;
3211;SDS011;1618;47.056;15.472;2023-08-24T02:01:18;15.37;;;14.57;;
3211;SDS011;1618;47.056;15.472;2023-08-24T02:03:48;14.90;;;14.20;;
3211;SDS011;1618;47.056;15.472;2023-08-24T02:06:15;14.80;;;14.10;;
3211;SDS011;1618;47.056;15.472;2023-08-24T02:08:44;15.50;;;14.70;;
3211;SDS011;1618;47.056;15.472;2023-08-24T02:11:12;16.07;;;15.27;;
3211;SDS011;1618;47.056;15.472;2023-08-24T02:13:40;16.10;;;15.30;;
3211;SDS011;1618;47.056;15.472;2023-08-24T02:16:11;16.10;;;15.30;;
3211;SDS011;1618;47.056;15.472;2023-08-24T02:18:39;15.13;;;14.37;;
3211;SDS011;1618;47.056;15.472;2023-08-24T02:21:07;15.70;;;14.90;;
3211;SDS011;1618;47.056;15.472;2023-08-24T02:23:37;15.80;;;15.00;;
3211;SDS011;1618;47.056;15.472;2023-08-24T02:26:06;15.90;;;15.10;;
3211;SDS011;1618;47.056;15.472;2023-08-24T02:28:33;15.93;;;15.13;;
3211;SDS011;1618;47.056;15.472;2023-08-24T02:31:00;15.90;;;15.10;;
3211;SDS011;1618;47.056;15.472;2023-08-24T02:33:30;16.23;;;15.43;;
3211;SDS011;1618;47.056;15.472;2023-08-24T02:35:58;16.27;;;15.47;;
3211;SDS011;1618;47.056;15.472;2023-08-24T02:38:26;16.20;;;15.40;;
3211;SDS011;1618;47.056;15.472;2023-08-24T02:41:02;16.00;;;15.20;;
3211;SDS011;1618;47.056;15.472;2023-08-24T02:43:35;15.87;;;15.07;;
3211;SDS011;1618;47.056;15.472;2023-08-24T02:46:03;16.00;;;15.20;;
3211;SDS011;1618;47.056;15.472;2023-08-24T02:48:32;15.83;;;15.03;;
3211;SDS011;1618;47.056;15.472;2023-08-24T02:51:00;15.60;;;14.80;;
3211;SDS011;1618;47.056;15.472;2023-08-24T02:53:30;15.70;;;14.90;;
3211;SDS011;1618;47.056;15.472;2023-08-24T02:55:57;15.30;;;14.50;;
3211;SDS011;1618;47.056;15.472;2023-08-24T02:58:26;15.43;;;14.63;;
3211;SDS011;1618;47.056;15.472;2023-08-24T03:00:53;15.63;;;14.83;;
3211;SDS011;1618;47.056;15.472;2023-08-24T03:03:23;15.30;;;14.50;;
3211;SDS011;1618;47.056;15.472;2023-08-24T03:05:59;15.80;;;15.00;;
3211;SDS011;1618;47.056;15.472;2023-08-24T03:08:32;15.90;;;15.10;;
3211;SDS011;1618;47.056;15.472;2023-08-24T03:11:02;15.50;;;14.70;;
3211;SDS011;1618;47.056;15.472;2023-08-24T03:13:30;14.40;;;13.70;;
3211;SDS011;1618;47.056;15.472;2023-08-24T03:16:02;14.60;;;13.90;;
3211;SDS011;1618;47.056;15.472;2023-08-24T03:18:31;14.73;;;14.03;;
3211;SDS011;1618;47.056;15.472;2023-08-24T03:21:00;14.13;;;13.43;;
3211;SDS011;1618;47.056;15.472;2023-08-24T03:23:33;14.20;;;13.50;;
3211;SDS011;1618;47.056;15.472;2023-08-24T03:26:00;14.20;;;13.50;;
3211;SDS011;1618;47.056;15.472;2023-08-24T03:28:28;14.90;;;14.20;;
3211;SDS011;1618;47.056;15.472;2023-08-24T03:30:55;15.23;;;14.50;;
3211;SDS011;1618;47.056;15.472;2023-08-24T03:33:24;14.70;;;14.00;;
3211;SDS011;1618;47.056;15.472;2023-08-24T03:35:56;14.70;;;14.00;;
3211;SDS011;1618;47.056;15.472;2023-08-24T03:38:24;15.80;;;15.00;;
3211;SDS011;1618;47.056;15.472;2023-08-24T03:41:00;16.07;;;15.27;;
3211;SDS011;1618;47.056;15.472;2023-08-24T03:43:28;15.00;;;14.30;;
3211;SDS011;1618;47.056;15.472;2023-08-24T03:45:58;15.40;;;14.60;;
3211;SDS011;1618;47.056;15.472;2023-08-24T03:48:25;15.87;;;15.07;;
3211;SDS011;1618;47.056;15.472;2023-08-24T03:50:58;15.40;;;14.70;;
3211;SDS011;1618;47.056;15.472;2023-08-24T03:53:28;16.53;;;15.83;;
3211;SDS011;1618;47.056;15.472;2023-08-24T03:55:57;14.00;;;13.40;;
3211;SDS011;1618;47.056;15.472;2023-08-24T03:58:27;16.00;;;15.30;;
3211;SDS011;1618;47.056;15.472;2023-08-24T04:00:55;15.27;;;14.57;;
3211;SDS011;1618;47.056;15.472;2023-08-24T04:03:25;15.27;;;14.57;;
3211;SDS011;1618;47.056;15.472;2023-08-24T04:05:58;15.40;;;14.70;;
3211;SDS011;1618;47.056;15.472;2023-08-24T04:08:25;14.30;;;13.70;;
3211;SDS011;1618;47.056;15.472;2023-08-24T04:10:54;16.33;;;15.63;;
3211;SDS011;1618;47.056;15.472;2023-08-24T04:13:24;16.97;;;16.27;;
3211;SDS011;1618;47.056;15.472;2023-08-24T04:15:53;15.90;;;15.20;;
3211;SDS011;1618;47.056;15.472;2023-08-24T04:18:20;15.77;;;15.07;;
3211;SDS011;1618;47.056;15.472;2023-08-24T04:20:51;14.27;;;13.67;;
3211;SDS011;1618;47.056;15.472;2023-08-24T04:23:23;14.37;;;13.77;;
3211;SDS011;1618;47.056;15.472;2023-08-24T04:25:55;14.33;;;13.73;;
3211;SDS011;1618;47.056;15.472;2023-08-24T04:28:24;13.47;;;12.87;;
3211;SDS011;1618;47.056;15.472;2023-08-24T04:30:51;14.50;;;13.90;;
3211;SDS011;1618;47.056;15.472;2023-08-24T04:33:19;15.20;;;14.50;;
3211;SDS011;1618;47.056;15.472;2023-08-24T04:35:53;14.40;;;13.80;;
3211;SDS011;1618;47.056;15.472;2023-08-24T04:38:30;14.73;;;14.13;;
3211;SDS011;1618;47.056;15.472;2023-08-24T04:41:02;13.30;;;12.70;;
3211;SDS011;1618;47.056;15.472;2023-08-24T04:43:33;13.50;;;12.90;;
3211;SDS011;1618;47.056;15.472;2023-08-24T04:46:02;14.13;;;13.53;;
3211;SDS011;1618;47.056;15.472;2023-08-24T04:48:30;14.60;;;14.00;;
3211;SDS011;1618;47.056;15.472;2023-08-24T04:50:59;15.40;;;14.70;;
3211;SDS011;1618;47.056;15.472;2023-08-24T04:53:27;15.70;;;15.00;;
3211;SDS011;1618;47.056;15.472;2023-08-24T04:55:58;15.20;;;14.50;;
3211;SDS011;1618;47.056;15.472;2023-08-24T04:58:39;15.53;;;14.83;;
3211;SDS011;1618;47.056;15.472;2023-08-24T05:01:07;15.30;;;14.60;;
3211;SDS011;1618;47.056;15.472;2023-08-24T05:03:37;14.30;;;13.70;;
3211;SDS011;1618;47.056;15.472;2023-08-24T05:06:06;14.00;;;13.40;;
3211;SDS011;1618;47.056;15.472;2023-08-24T05:08:36;13.90;;;13.30;;
3211;SDS011;1618;47.056;15.472;2023-08-24T05:11:16;14.67;;;14.07;;
3211;SDS011;1618;47.056;15.472;2023-08-24T05:13:45;14.30;;;13.70;;
3211;SDS011;1618;47.056;15.472;2023-08-24T05:16:15;14.20;;;13.60;;
3211;SDS011;1618;47.056;15.472;2023-08-24T05:18:43;14.27;;;13.67;;
3211;SDS011;1618;47.056;15.472;2023-08-24T05:21:12;13.57;;;12.97;;
3211;SDS011;1618;47.056;15.472;2023-08-24T05:23:41;14.90;;;14.30;;
3211;SDS011;1618;47.056;15.472;2023-08-24T05:26:08;15.27;;;14.57;;
3211;SDS011;1618;47.056;15.472;2023-08-24T05:28:36;15.00;;;14.30;;
3211;SDS011;1618;47.056;15.472;2023-08-24T05:31:05;14.80;;;14.20;;
3211;SDS011;1618;47.056;15.472;2023-08-24T05:33:35;17.57;;;16.77;;
3211;SDS011;1618;47.056;15.472;2023-08-24T05:36:09;14.60;;;14.00;;
3211;SDS011;1618;47.056;15.472;2023-08-24T05:38:36;15.60;;;14.90;;
3211;SDS011;1618;47.056;15.472;2023-08-24T05:41:04;17.10;;;16.30;;
3211;SDS011;1618;47.056;15.472;2023-08-24T05:43:35;16.03;;;15.33;;
3211;SDS011;1618;47.056;15.472;2023-08-24T05:46:02;15.70;;;15.00;;
3211;SDS011;1618;47.056;15.472;2023-08-24T05:48:32;16.00;;;15.30;;
3211;SDS011;1618;47.056;15.472;2023-08-24T05:51:01;16.30;;;15.60;;
3211;SDS011;1618;47.056;15.472;2023-08-24T05:53:31;15.87;;;15.17;;
3211;SDS011;1618;47.056;15.472;2023-08-24T05:56:01;16.10;;;15.40;;
3211;SDS011;1618;47.056;15.472;2023-08-24T05:58:42;15.90;;;15.20;;
3211;SDS011;1618;47.056;15.472;2023-08-24T06:01:19;16.47;;;15.77;;
3211;SDS011;1618;47.056;15.472;2023-08-24T06:03:57;16.20;;;15.50;;
3211;SDS011;1618;47.056;15.472;2023-08-24T06:06:40;16.73;;;15.93;;
3211;SDS011;1618;47.056;15.472;2023-08-24T06:09:09;16.60;;;15.80;;
3211;SDS011;1618;47.056;15.472;2023-08-24T06:11:54;16.93;;;16.13;;
3211;SDS011;1618;47.056;15.472;2023-08-24T06:14:22;15.83;;;15.13;;
3211;SDS011;1618;47.056;15.472;2023-08-24T06:16:58;16.20;;;15.50;;
3211;SDS011;1618;47.056;15.472;2023-08-24T06:19:37;19.63;;;18.73;;
3211;SDS011;1618;47.056;15.472;2023-08-24T06:22:05;20.20;;;19.20;;
3211;SDS011;1618;47.056;15.472;2023-08-24T06:24:33;20.60;;;19.60;;
3211;SDS011;1618;47.056;15.472;2023-08-24T06:27:01;21.43;;;20.40;;
3211;SDS011;1618;47.056;15.472;2023-08-24T06:35:15;19.90;;;18.90;;
3211;SDS011;1618;47.056;15.472;2023-08-24T06:40:38;21.57;;;20.47;;
3211;SDS011;1618;47.056;15.472;2023-08-24T06:51:54;24.37;;;23.07;;
3211;SDS011;1618;47.056;15.472;2023-08-24T06:54:24;20.53;;;19.43;;
3211;SDS011;1618;47.056;15.472;2023-08-24T06:59:55;21.80;;;20.60;;
3211;SDS011;1618;47.056;15.472;2023-08-24T07:08:26;21.87;;;20.67;;
3211;SDS011;1618;47.056;15.472;2023-08-24T07:10:55;21.77;;;20.57;;
3211;SDS011;1618;47.056;15.472;2023-08-24T07:13:27;23.87;;;22.57;;
3211;SDS011;1618;47.056;15.472;2023-08-24T07:15:55;24.10;;;22.80;;
3211;SDS011;1618;47.056;15.472;2023-08-24T07:18:32;25.30;;;23.90;;
3211;SDS011;1618;47.056;15.472;2023-08-24T07:20:59;24.90;;;23.50;;
3211;SDS011;1618;47.056;15.472;2023-08-24T07:26:34;24.03;;;22.73;;
3211;SDS011;1618;47.056;15.472;2023-08-24T07:32:05;25.30;;;23.80;;
3211;SDS011;1618;47.056;15.472;2023-08-24T07:34:37;24.20;;;22.80;;
3211;SDS011;1618;47.056;15.472;2023-08-24T07:40:01;24.77;;;23.27;;
3211;SDS011;1618;47.056;15.472;2023-08-24T07:42:48;26.17;;;24.57;;
3211;SDS011;1618;47.056;15.472;2023-08-24T07:45:31;25.40;;;23.90;;
3211;SDS011;1618;47.056;15.472;2023-08-24T07:48:00;25.00;;;23.50;;
3211;SDS011;1618;47.056;15.472;2023-08-24T07:50:29;25.13;;;23.53;;
3211;SDS011;1618;47.056;15.472;2023-08-24T07:56:00;24.20;;;22.60;;
3211;SDS011;1618;47.056;15.472;2023-08-24T07:58:51;25.10;;;23.43;;
3211;SDS011;1618;47.056;15.472;2023-08-24T08:01:20;27.10;;;25.30;;
3211;SDS011;1618;47.056;15.472;2023-08-24T08:06:33;27.50;;;25.60;;
3211;SDS011;1618;47.056;15.472;2023-08-24T08:12:04;25.70;;;23.80;;
3211;SDS011;1618;47.056;15.472;2023-08-24T08:14:33;25.93;;;24.03;;
3211;SDS011;1618;47.056;15.472;2023-08-24T08:17:06;26.67;;;24.77;;
3211;SDS011;1618;47.056;15.472;2023-08-24T08:19:34;25.80;;;23.90;;
3211;SDS011;1618;47.056;15.472;2023-08-24T08:22:09;26.80;;;24.90;;
3211;SDS011;1618;47.056;15.472;2023-08-24T08:27:53;24.70;;;22.80;;
3211;SDS011;1618;47.056;15.472;2023-08-24T08:30:27;25.50;;;23.60;;
3211;SDS011;1618;47.056;15.472;2023-08-24T08:33:10;25.90;;;23.90;;
3211;SDS011;1618;47.056;15.472;2023-08-24T08:35:39;26.40;;;24.40;;
3211;SDS011;1618;47.056;15.472;2023-08-24T08:46:39;27.60;;;25.50;;
3211;SDS011;1618;47.056;15.472;2023-08-24T08:49:09;27.23;;;25.13;;
3211;SDS011;1618;47.056;15.472;2023-08-24T08:51:38;25.77;;;23.77;;
3211;SDS011;1618;47.056;15.472;2023-08-24T08:54:11;25.70;;;23.70;;
3211;SDS011;1618;47.056;15.472;2023-08-24T08:56:40;25.80;;;23.90;;
3211;SDS011;1618;47.056;15.472;2023-08-24T08:59:08;27.67;;;25.47;;
3211;SDS011;1618;47.056;15.472;2023-08-24T09:01:36;26.17;;;24.27;;
3211;SDS011;1618;47.056;15.472;2023-08-24T09:04:05;26.80;;;24.80;;
3211;SDS011;1618;47.056;15.472;2023-08-24T09:06:35;26.60;;;24.50;;
3211;SDS011;1618;47.056;15.472;2023-08-24T09:09:04;28.43;;;26.33;;
3211;SDS011;1618;47.056;15.472;2023-08-24T09:11:32;26.93;;;24.93;;
3211;SDS011;1618;47.056;15.472;2023-08-24T09:17:03;27.50;;;25.40;;
3211;SDS011;1618;47.056;15.472;2023-08-24T09:22:42;26.40;;;24.30;;
3211;SDS011;1618;47.056;15.472;2023-08-24T09:25:10;27.40;;;25.20;;
3211;SDS011;1618;47.056;15.472;2023-08-24T09:27:37;28.00;;;25.80;;
3211;SDS011;1618;47.056;15.472;2023-08-24T09:30:13;28.23;;;26.03;;
3211;SDS011;1618;47.056;15.472;2023-08-24T09:36:01;30.80;;;28.40;;
3211;SDS011;1618;47.056;15.472;2023-08-24T09:47:17;30.13;;;27.73;;
3211;SDS011;1618;47.056;15.472;2023-08-24T09:52:38;28.47;;;26.17;;
3211;SDS011;1618;47.056;15.472;2023-08-24T09:55:34;29.40;;;27.00;;
3211;SDS011;1618;47.056;15.472;2023-08-24T09:58:19;28.90;;;26.60;;
3211;SDS011;1618;47.056;15.472;2023-08-24T10:01:20;28.60;;;26.30;;
3211;SDS011;1618;47.056;15.472;2023-08-24T10:03:55;29.70;;;27.30;;
3211;SDS011;1618;47.056;15.472;2023-08-24T10:06:25;30.50;;;28.00;;
3211;SDS011;1618;47.056;15.472;2023-08-24T10:09:11;28.93;;;26.50;;
3211;SDS011;1618;47.056;15.472;2023-08-24T10:12:11;30.10;;;27.60;;
3211;SDS011;1618;47.056;15.472;2023-08-24T10:14:44;29.83;;;27.40;;
3211;SDS011;1618;47.056;15.472;2023-08-24T10:17:17;31.00;;;28.57;;
3211;SDS011;1618;47.056;15.472;2023-08-24T10:19:58;30.83;;;28.33;;
3211;SDS011;1618;47.056;15.472;2023-08-24T10:22:31;31.23;;;28.73;;
3211;SDS011;1618;47.056;15.472;2023-08-24T10:25:06;30.70;;;28.10;;
3211;SDS011;1618;47.056;15.472;2023-08-24T10:28:02;32.20;;;29.57;;
3211;SDS011;1618;47.056;15.472;2023-08-24T10:41:10;30.00;;;27.40;;
3211;SDS011;1618;47.056;15.472;2023-08-24T10:43:48;29.73;;;27.20;;
3211;SDS011;1618;47.056;15.472;2023-08-24T10:46:16;32.53;;;29.80;;
3211;SDS011;1618;47.056;15.472;2023-08-24T10:48:56;31.83;;;29.10;;
3211;SDS011;1618;47.056;15.472;2023-08-24T10:51:25;32.47;;;29.67;;
3211;SDS011;1618;47.056;15.472;2023-08-24T10:53:56;32.70;;;29.90;;
3211;SDS011;1618;47.056;15.472;2023-08-24T10:56:33;34.23;;;31.33;;
3211;SDS011;1618;47.056;15.472;2023-08-24T11:04:15;34.00;;;31.10;;
3211;SDS011;1618;47.056;15.472;2023-08-24T11:06:51;34.83;;;31.83;;
3211;SDS011;1618;47.056;15.472;2023-08-24T11:09:22;33.90;;;31.00;;
3211;SDS011;1618;47.056;15.472;2023-08-24T11:12:01;33.55;;;30.65;;
3211;SDS011;1618;47.056;15.472;2023-08-24T11:14:33;33.63;;;30.73;;
3211;SDS011;1618;47.056;15.472;2023-08-24T11:17:22;33.53;;;30.83;;
3211;SDS011;1618;47.056;15.472;2023-08-24T11:19:53;35.17;;;32.37;;
3211;SDS011;1618;47.056;15.472;2023-08-24T11:22:22;35.07;;;32.27;;
3211;SDS011;1618;47.056;15.472;2023-08-24T11:24:55;34.73;;;31.83;;
3211;SDS011;1618;47.056;15.472;2023-08-24T11:27:25;34.43;;;31.53;;
3211;SDS011;1618;47.056;15.472;2023-08-24T11:29:58;35.27;;;32.47;;
3211;SDS011;1618;47.056;15.472;2023-08-24T11:32:26;35.97;;;33.27;;
3211;SDS011;1618;47.056;15.472;2023-08-24T11:35:06;34.70;;;31.93;;
3211;SDS011;1618;47.056;15.472;2023-08-24T11:37:40;38.43;;;35.47;;
3211;SDS011;1618;47.056;15.472;2023-08-24T11:40:16;37.60;;;34.63;;
3211;SDS011;1618;47.056;15.472;2023-08-24T11:42:45;36.90;;;33.90;;
3211;SDS011;1618;47.056;15.472;2023-08-24T11:45:20;35.93;;;33.03;;
3211;SDS011;1618;47.056;15.472;2023-08-24T11:47:49;36.47;;;33.57;;
3211;SDS011;1618;47.056;15.472;2023-08-24T11:50:37;36.50;;;33.60;;
3211;SDS011;1618;47.056;15.472;2023-08-24T11:53:06;37.53;;;34.53;;
3211;SDS011;1618;47.056;15.472;2023-08-24T11:55:39;37.63;;;34.63;;
3211;SDS011;1618;47.056;15.472;2023-08-24T11:58:14;39.23;;;36.13;;
3211;SDS011;1618;47.056;15.472;2023-08-24T12:00:43;39.70;;;36.50;;
3211;SDS011;1618;47.056;15.472;2023-08-24T12:03:11;35.67;;;32.57;;
3211;SDS011;1618;47.056;15.472;2023-08-24T12:05:41;35.80;;;32.77;;
3211;SDS011;1618;47.056;15.472;2023-08-24T12:08:10;34.60;;;31.60;;
3211;SDS011;1618;47.056;15.472;2023-08-24T12:10:42;34.87;;;31.87;;
3211;SDS011;1618;47.056;15.472;2023-08-24T12:13:11;36.33;;;33.23;;
3211;SDS011;1618;47.056;15.472;2023-08-24T12:15:40;36.23;;;33.13;;
3211;SDS011;1618;47.056;15.472;2023-08-24T12:18:09;36.20;;;33.10;;
3211;SDS011;1618;47.056;15.472;2023-08-24T12:20:36;35.97;;;32.87;;
3211;SDS011;1618;47.056;15.472;2023-08-24T12:23:04;35.20;;;32.10;;
3211;SDS011;1618;47.056;15.472;2023-08-24T12:25:35;38.27;;;35.17;;
3211;SDS011;1618;47.056;15.472;2023-08-24T12:28:09;37.30;;;34.20;;
3211;SDS011;1618;47.056;15.472;2023-08-24T12:30:45;35.43;;;32.33;;
3211;SDS011;1618;47.056;15.472;2023-08-24T12:33:24;35.17;;;32.07;;
3211;SDS011;1618;47.056;15.472;2023-08-24T12:35:55;34.73;;;31.63;;
3211;SDS011;1618;47.056;15.472;2023-08-24T12:38:24;33.90;;;30.90;;
3211;SDS011;1618;47.056;15.472;2023-08-24T12:40:54;34.70;;;31.50;;
3211;SDS011;1618;47.056;15.472;2023-08-24T12:43:23;35.80;;;32.50;;
3211;SDS011;1618;47.056;15.472;2023-08-24T12:45:52;35.30;;;32.00;;
3211;SDS011;1618;47.056;15.472;2023-08-24T12:48:20;36.30;;;33.00;;
3211;SDS011;1618;47.056;15.472;2023-08-24T12:50:47;35.93;;;32.63;;
3211;SDS011;1618;47.056;15.472;2023-08-24T12:53:15;36.30;;;33.00;;
3211;SDS011;1618;47.056;15.472;2023-08-24T12:55:44;37.53;;;34.23;;
3211;SDS011;1618;47.056;15.472;2023-08-24T12:58:12;38.27;;;35.17;;
3211;SDS011;1618;47.056;15.472;2023-08-24T13:00:40;35.57;;;32.37;;
3211;SDS011;1618;47.056;15.472;2023-08-24T13:03:11;36.90;;;33.60;;
3211;SDS011;1618;47.056;15.472;2023-08-24T13:05:39;36.23;;;33.03;;
3211;SDS011;1618;47.056;15.472;2023-08-24T13:08:07;36.70;;;33.40;;
3211;SDS011;1618;47.056;15.472;2023-08-24T13:10:34;36.37;;;33.07;;
3211;SDS011;1618;47.056;15.472;2023-08-24T13:13:03;35.60;;;32.60;;
3211;SDS011;1618;47.056;15.472;2023-08-24T13:15:31;37.70;;;34.30;;
3211;SDS011;1618;47.056;15.472;2023-08-24T13:17:58;36.87;;;33.77;;
3211;SDS011;1618;47.056;15.472;2023-08-24T13:20:28;37.57;;;34.37;;
3211;SDS011;1618;47.056;15.472;2023-08-24T13:22:55;36.57;;;33.27;;
3211;SDS011;1618;47.056;15.472;2023-08-24T13:25:24;37.87;;;34.87;;
3211;SDS011;1618;47.056;15.472;2023-08-24T13:27:57;36.33;;;33.33;;
3211;SDS011;1618;47.056;15.472;2023-08-24T13:30:25;37.17;;;34.17;;
3211;SDS011;1618;47.056;15.472;2023-08-24T13:32:54;35.23;;;32.03;;
3211;SDS011;1618;47.056;15.472;2023-08-24T13:35:22;35.57;;;32.37;;
3211;SDS011;1618;47.056;15.472;2023-08-24T13:37:52;35.97;;;32.97;;
3211;SDS011;1618;47.056;15.472;2023-08-24T13:40:24;37.57;;;34.07;;
3211;SDS011;1618;47.056;15.472;2023-08-24T13:42:51;36.40;;;32.90;;
3211;SDS011;1618;47.056;15.472;2023-08-24T13:45:19;38.83;;;35.33;;
3211;SDS011;1618;47.056;15.472;2023-08-24T13:47:47;36.73;;;33.33;;
3211;SDS011;1618;47.056;15.472;2023-08-24T13:50:20;37.27;;;33.87;;
3211;SDS011;1618;47.056;15.472;2023-08-24T13:52:49;37.80;;;34.40;;
3211;SDS011;1618;47.056;15.472;2023-08-24T13:55:18;37.10;;;33.80;;
3211;SDS011;1618;47.056;15.472;2023-08-24T13:57:45;37.23;;;33.93;;
3211;SDS011;1618;47.056;15.472;2023-08-24T14:00:15;36.60;;;33.30;;
3211;SDS011;1618;47.056;15.472;2023-08-24T14:02:44;37.40;;;34.10;;
3211;SDS011;1618;47.056;15.472;2023-08-24T14:05:13;36.80;;;33.50;;
3211;SDS011;1618;47.056;15.472;2023-08-24T14:07:41;37.70;;;34.33;;
3211;SDS011;1618;47.056;15.472;2023-08-24T14:10:10;37.50;;;34.20;;
3211;SDS011;1618;47.056;15.472;2023-08-24T14:12:40;37.13;;;33.83;;
3211;SDS011;1618;47.056;15.472;2023-08-24T14:15:07;38.67;;;35.27;;
3211;SDS011;1618;47.056;15.472;2023-08-24T14:17:37;38.23;;;34.93;;
3211;SDS011;1618;47.056;15.472;2023-08-24T14:20:06;36.93;;;33.63;;
3211;SDS011;1618;47.056;15.472;2023-08-24T14:22:35;36.83;;;33.53;;
3211;SDS011;1618;47.056;15.472;2023-08-24T14:25:05;37.80;;;34.40;;
3211;SDS011;1618;47.056;15.472;2023-08-24T14:27:32;38.13;;;34.83;;
3211;SDS011;1618;47.056;15.472;2023-08-24T14:30:02;36.07;;;32.87;;
3211;SDS011;1618;47.056;15.472;2023-08-24T14:32:35;37.93;;;34.53;;
3211;SDS011;1618;47.056;15.472;2023-08-24T14:35:02;38.50;;;35.20;;
3211;SDS011;1618;47.056;15.472;2023-08-24T14:37:30;38.63;;;35.23;;
3211;SDS011;1618;47.056;15.472;2023-08-24T14:39:58;37.90;;;34.50;;
3211;SDS011;1618;47.056;15.472;2023-08-24T14:42:25;37.67;;;34.37;;
3211;SDS011;1618;47.056;15.472;2023-08-24T14:44:54;36.30;;;33.10;;
3211;SDS011;1618;47.056;15.472;2023-08-24T14:47:24;37.27;;;34.07;;
3211;SDS011;1618;47.056;15.472;2023-08-24T14:49:51;37.43;;;34.13;;
3211;SDS011;1618;47.056;15.472;2023-08-24T14:52:19;37.30;;;34.00;;
3211;SDS011;1618;47.056;15.472;2023-08-24T14:54:47;37.20;;;33.80;;
3211;SDS011;1618;47.056;15.472;2023-08-24T14:57:16;36.77;;;33.57;;
3211;SDS011;1618;47.056;15.472;2023-08-24T14:59:43;35.97;;;32.67;;
3211;SDS011;1618;47.056;15.472;2023-08-24T15:02:10;36.60;;;33.40;;
3211;SDS011;1618;47.056;15.472;2023-08-24T15:04:39;33.37;;;30.43;;
3211;SDS011;1618;47.056;15.472;2023-08-24T15:07:12;35.40;;;32.30;;
3211;SDS011;1618;47.056;15.472;2023-08-24T15:09:40;34.97;;;31.87;;
3211;SDS011;1618;47.056;15.472;2023-08-24T15:12:08;36.80;;;33.60;;
3211;SDS011;1618;47.056;15.472;2023-08-24T15:14:35;37.87;;;34.67;;
3211;SDS011;1618;47.056;15.472;2023-08-24T15:17:05;36.00;;;32.90;;
3211;SDS011;1618;47.056;15.472;2023-08-24T15:19:34;36.27;;;33.33;;
3211;SDS011;1618;47.056;15.472;2023-08-24T15:22:04;37.03;;;33.93;;
3211;SDS011;1618;47.056;15.472;2023-08-24T15:24:32;35.87;;;32.70;;
3211;SDS011;1618;47.056;15.472;2023-08-24T15:27:00;37.37;;;34.17;;
3211;SDS011;1618;47.056;15.472;2023-08-24T15:29:28;36.77;;;33.67;;
3211;SDS011;1618;47.056;15.472;2023-08-24T15:31:55;37.60;;;34.40;;
3211;SDS011;1618;47.056;15.472;2023-08-24T15:34:24;37.60;;;34.40;;
3211;SDS011;1618;47.056;15.472;2023-08-24T15:36:53;37.40;;;34.30;;
3211;SDS011;1618;47.056;15.472;2023-08-24T15:39:26;35.23;;;32.23;;
3211;SDS011;1618;47.056;15.472;2023-08-24T15:41:53;34.67;;;31.67;;
3211;SDS011;1618;47.056;15.472;2023-08-24T15:44:21;35.70;;;32.70;;
3211;SDS011;1618;47.056;15.472;2023-08-24T15:46:49;37.33;;;34.23;;
3211;SDS011;1618;47.056;15.472;2023-08-24T15:49:20;35.40;;;32.50;;
3211;SDS011;1618;47.056;15.472;2023-08-24T15:51:49;33.40;;;30.60;;
3211;SDS011;1618;47.056;15.472;2023-08-24T15:54:16;34.27;;;31.47;;
3211;SDS011;1618;47.056;15.472;2023-08-24T15:56:50;34.70;;;32.00;;
3211;SDS011;1618;47.056;15.472;2023-08-24T15:59:19;34.50;;;31.67;;
3211;SDS011;1618;47.056;15.472;2023-08-24T16:01:48;34.97;;;32.07;;
3211;SDS011;1618;47.056;15.472;2023-08-24T16:04:15;34.70;;;31.90;;
3211;SDS011;1618;47.056;15.472;2023-08-24T16:06:49;34.77;;;31.97;;
3211;SDS011;1618;47.056;15.472;2023-08-24T16:09:32;39.20;;;36.10;;
3211;SDS011;1618;47.056;15.472;2023-08-24T16:12:07;35.50;;;32.70;;
3211;SDS011;1618;47.056;15.472;2023-08-24T16:14:37;33.13;;;30.53;;
3211;SDS011;1618;47.056;15.472;2023-08-24T16:17:04;33.73;;;31.13;;
3211;SDS011;1618;47.056;15.472;2023-08-24T16:19:33;34.33;;;31.63;;
3211;SDS011;1618;47.056;15.472;2023-08-24T16:22:01;32.83;;;30.23;;
3211;SDS011;1618;47.056;15.472;2023-08-24T16:24:28;33.77;;;31.17;;
3211;SDS011;1618;47.056;15.472;2023-08-24T16:27:14;34.50;;;31.80;;
3211;SDS011;1618;47.056;15.472;2023-08-24T16:29:52;33.50;;;30.90;;